Time;durP1;ratioP1;P1;durP2;ratioP2;P2;SDS_P1;SDS_P2;PMS_P1;PMS_P2;Temp;Humidity;BMP_temperature;BMP_pressure;BME280_temperature;BME280_humidity;BME280_pressure;Samples;Min_cycle;Max_cycle;Signal;HPM_P1;HPM_P2
2023/06/16 00:00:11;;;;;;;;;17.00;15.50;;;;;23.32;52.28;100756.85;112147;1263;20249;-37
2023/06/16 00:02:59;;;;;;;;;14.00;14.00;;;;;23.32;52.31;100754.15;112180;1263;21573;-37
2023/06/16 00:05:28;;;;;;;;;17.00;17.00;;;;;23.31;52.24;100758.20;112139;1263;20751;-37
2023/06/16 00:07:58;;;;;;;;;18.00;15.50;;;;;23.31;52.24;100754.80;112140;1263;21030;-37
2023/06/16 00:10:25;;;;;;;;;14.00;13.00;;;;;23.31;52.20;100753.10;112172;1263;19080;-37
2023/06/16 00:12:53;;;;;;;;;13.00;12.00;;;;;23.31;52.36;100751.92;112220;1263;20806;-37
2023/06/16 00:15:20;;;;;;;;;15.00;14.00;;;;;23.30;52.24;100748.84;112144;1263;19886;-37
2023/06/16 00:17:49;;;;;;;;;23.00;21.00;;;;;23.30;52.21;100748.84;112225;1263;20327;-37
2023/06/16 00:20:19;;;;;;;;;15.50;15.00;;;;;23.31;52.21;100752.80;112309;1263;19336;-37
2023/06/16 00:22:47;;;;;;;;;12.00;12.00;;;;;23.31;52.18;100752.17;112334;1263;19949;-37
2023/06/16 00:25:15;;;;;;;;;15.00;14.00;;;;;23.31;52.35;100753.30;112311;1247;19085;-37
2023/06/16 00:27:42;;;;;;;;;14.00;13.33;;;;;23.31;52.10;100752.08;112327;1263;20529;-37
2023/06/16 00:30:10;;;;;;;;;11.33;11.33;;;;;23.31;52.17;100754.64;112329;1247;18578;-37
2023/06/16 00:32:37;;;;;;;;;12.00;12.00;;;;;23.31;52.03;100757.14;112407;1263;20045;-37
2023/06/16 00:35:05;;;;;;;;;15.00;14.50;;;;;23.31;52.13;100751.87;112340;1263;19501;-37
2023/06/16 00:37:32;;;;;;;;;14.50;13.00;;;;;23.30;52.00;100750.85;112418;1263;18761;-37
2023/06/16 00:40:00;;;;;;;;;16.00;15.00;;;;;23.31;52.10;100745.10;112286;1263;20075;-36
2023/06/16 00:42:27;;;;;;;;;16.00;14.50;;;;;23.31;51.98;100740.42;112305;1263;19306;-37
2023/06/16 00:44:55;;;;;;;;;15.00;14.00;;;;;23.33;51.90;100737.58;112161;1263;18572;-37
2023/06/16 00:47:22;;;;;;;;;18.50;18.00;;;;;23.30;51.97;100734.62;112306;1263;19232;-37
2023/06/16 00:49:50;;;;;;;;;13.00;12.00;;;;;23.31;52.03;100731.30;112147;1256;19328;-37
2023/06/16 00:52:17;;;;;;;;;15.00;14.00;;;;;23.30;51.82;100726.02;112259;1247;18768;-37
2023/06/16 00:54:45;;;;;;;;;15.00;15.00;;;;;23.31;51.91;100725.06;112132;1263;18619;-37
2023/06/16 00:57:13;;;;;;;;;14.00;14.00;;;;;23.32;51.87;100730.23;111934;1263;386942;-37
2023/06/16 00:59:40;;;;;;;;;12.00;12.00;;;;;23.31;51.72;100733.10;112119;1256;20196;-37
2023/06/16 01:02:08;;;;;;;;;15.00;15.00;;;;;23.32;51.69;100737.30;112245;1263;21791;-37
2023/06/16 01:04:35;;;;;;;;;15.00;14.00;;;;;23.31;51.67;100735.26;112146;1263;20919;-37
2023/06/16 01:07:03;;;;;;;;;14.00;12.00;;;;;23.30;51.56;100731.70;112235;1263;19905;-37
2023/06/16 01:09:30;;;;;;;;;15.67;14.00;;;;;23.32;51.49;100735.17;112136;1263;20034;-37
2023/06/16 01:11:58;;;;;;;;;12.00;12.00;;;;;23.31;51.63;100739.98;112235;1247;22265;-37
2023/06/16 01:14:25;;;;;;;;;15.00;14.00;;;;;23.31;51.49;100739.13;112107;1263;19970;-37
2023/06/16 01:16:53;;;;;;;;;15.67;15.00;;;;;23.31;51.76;100741.14;112284;1263;19900;-37
2023/06/16 01:19:22;;;;;;;;;16.00;15.00;;;;;23.29;51.58;100741.28;112105;1256;21042;-37
2023/06/16 01:21:49;;;;;;;;;15.00;15.00;;;;;23.29;51.58;100742.05;112172;1263;19882;-37
2023/06/16 01:24:18;;;;;;;;;17.00;15.00;;;;;23.29;51.64;100738.21;112185;1263;20183;-37
2023/06/16 01:26:46;;;;;;;;;17.50;15.50;;;;;23.29;51.43;100740.31;112127;1263;20697;-37
2023/06/16 01:29:14;;;;;;;;;15.00;14.00;;;;;23.28;51.45;100742.99;112182;1263;19945;-37
2023/06/16 01:31:41;;;;;;;;;15.00;15.00;;;;;23.27;51.50;100739.84;112088;1263;20281;-37
2023/06/16 01:34:09;;;;;;;;;15.00;15.00;;;;;23.27;51.46;100738.83;112213;1263;20935;-37
2023/06/16 01:36:36;;;;;;;;;12.00;11.00;;;;;23.27;51.39;100744.55;112079;1263;20127;-37
2023/06/16 01:39:04;;;;;;;;;13.00;13.00;;;;;23.27;51.38;100742.70;112194;1257;18815;-37
2023/06/16 01:41:31;;;;;;;;;15.00;15.00;;;;;23.26;51.27;100742.23;112076;1263;20601;-37
2023/06/16 01:43:59;;;;;;;;;14.33;14.00;;;;;23.27;51.30;100746.86;112168;1263;20157;-37
2023/06/16 01:46:26;;;;;;;;;13.33;13.33;;;;;23.27;51.33;100747.08;112073;1263;18988;-37
2023/06/16 01:48:54;;;;;;;;;12.00;11.00;;;;;23.27;51.12;100746.11;112194;1256;19674;-37
2023/06/16 01:51:21;;;;;;;;;14.50;14.00;;;;;23.28;50.98;100745.90;112123;1255;20128;-37
2023/06/16 01:53:48;;;;;;;;;14.33;12.67;;;;;23.28;51.01;100749.94;112304;1263;19990;-37
2023/06/16 01:56:16;;;;;;;;;14.00;14.00;;;;;23.27;51.09;100747.11;112271;1263;19335;-37
2023/06/16 01:58:43;;;;;;;;;12.00;11.00;;;;;23.27;50.95;100749.98;112235;1247;19930;-37
2023/06/16 02:01:11;;;;;;;;;14.50;14.00;;;;;23.27;50.90;100753.09;112106;1263;20038;-37
2023/06/16 02:03:38;;;;;;;;;14.67;12.67;;;;;23.27;50.84;100755.79;112221;1247;20938;-36
2023/06/16 02:06:06;;;;;;;;;14.50;14.00;;;;;23.26;50.85;100753.77;112101;1263;18571;-37
2023/06/16 02:08:33;;;;;;;;;12.00;12.00;;;;;23.27;50.90;100750.77;112212;1263;19976;-36
2023/06/16 02:11:00;;;;;;;;;13.00;12.00;;;;;23.26;50.86;100755.43;112107;1263;19325;-37
2023/06/16 02:13:28;;;;;;;;;19.00;16.00;;;;;23.25;50.80;100752.05;112225;1247;20308;-37
2023/06/16 02:15:55;;;;;;;;;13.33;13.33;;;;;23.26;50.66;100753.96;112141;1263;19189;-37
2023/06/16 02:18:24;;;;;;;;;12.00;12.00;;;;;23.25;50.71;100754.08;112245;1263;19336;-37
2023/06/16 02:20:52;;;;;;;;;14.00;12.00;;;;;23.24;50.54;100753.44;112249;1263;18734;-37
2023/06/16 02:23:20;;;;;;;;;12.67;11.00;;;;;23.24;50.35;100752.55;112153;1263;20473;-37
2023/06/16 02:25:47;;;;;;;;;16.00;15.33;;;;;23.24;50.39;100752.24;112280;1247;20949;-37
2023/06/16 02:28:15;;;;;;;;;14.00;12.00;;;;;23.23;50.39;100756.83;112134;1263;18886;-37
2023/06/16 02:30:42;;;;;;;;;11.00;9.00;;;;;23.23;50.50;100752.73;112307;1248;21085;-37
2023/06/16 02:33:09;;;;;;;;;15.00;13.00;;;;;23.23;50.26;100755.95;112135;1263;19324;-37
2023/06/16 02:35:37;;;;;;;;;12.00;12.00;;;;;23.22;50.27;100752.61;112296;1247;20008;-37
2023/06/16 02:38:04;;;;;;;;;14.00;14.00;;;;;23.22;50.39;100747.52;112150;1263;20376;-37
2023/06/16 02:40:32;;;;;;;;;13.00;11.00;;;;;23.22;50.16;100747.30;112257;1247;21628;-37
2023/06/16 02:43:00;;;;;;;;;12.00;11.00;;;;;23.22;50.16;100744.58;112151;1263;19972;-37
2023/06/16 02:45:27;;;;;;;;;12.67;12.00;;;;;23.22;50.26;100744.99;112289;1263;18833;-37
2023/06/16 02:47:55;;;;;;;;;11.33;11.33;;;;;23.22;50.09;100744.41;112132;1263;21048;-37
2023/06/16 02:50:22;;;;;;;;;14.00;12.00;;;;;23.22;50.00;100740.83;112273;1263;21053;-37
2023/06/16 02:52:50;;;;;;;;;11.00;11.00;;;;;23.22;49.92;100739.90;112170;1263;20002;-37
2023/06/16 02:55:18;;;;;;;;;13.00;13.00;;;;;23.22;49.98;100739.11;112264;1263;20569;-37
2023/06/16 02:57:46;;;;;;;;;13.00;12.00;;;;;23.22;49.93;100738.39;112124;1263;19945;-37
2023/06/16 03:00:13;;;;;;;;;14.00;12.00;;;;;23.22;49.76;100741.47;112208;1263;19916;-37
2023/06/16 03:02:41;;;;;;;;;14.50;14.50;;;;;23.22;49.83;100741.67;112076;1263;22272;-37
2023/06/16 03:05:09;;;;;;;;;14.00;12.00;;;;;23.22;49.77;100739.19;112189;1263;18918;-37
2023/06/16 03:07:36;;;;;;;;;14.00;12.00;;;;;23.21;49.80;100738.56;112120;1247;20074;-37
2023/06/16 03:10:06;;;;;;;;;14.00;12.00;;;;;23.21;49.71;100740.87;112171;1263;19815;-37
2023/06/16 03:12:33;;;;;;;;;15.00;14.00;;;;;23.22;49.86;100738.98;112224;1247;20011;-37
2023/06/16 03:15:01;;;;;;;;;18.00;15.00;;;;;23.22;49.77;100738.02;112119;1263;20258;-37
2023/06/16 03:17:28;;;;;;;;;14.67;14.33;;;;;23.22;49.89;100732.59;112234;1247;20833;-37
2023/06/16 03:19:55;;;;;;;;;15.00;14.00;;;;;23.22;49.73;100734.36;112143;1247;20157;-37
2023/06/16 03:22:23;;;;;;;;;12.00;12.00;;;;;23.21;49.65;100736.12;112252;1263;18913;-37
2023/06/16 03:24:50;;;;;;;;;12.00;12.00;;;;;23.22;49.59;100737.55;112169;1263;20699;-37
2023/06/16 03:27:18;;;;;;;;;12.00;12.00;;;;;23.22;49.67;100742.22;112223;1263;18548;-37
2023/06/16 03:29:45;;;;;;;;;14.50;14.00;;;;;23.21;49.82;100740.49;112159;1263;21543;-37
2023/06/16 03:32:13;;;;;;;;;16.00;14.00;;;;;23.21;49.67;100742.34;112227;1263;19638;-37
2023/06/16 03:34:40;;;;;;;;;11.00;11.00;;;;;23.22;49.74;100745.00;112149;1263;18724;-37
2023/06/16 03:37:08;;;;;;;;;14.00;14.00;;;;;23.21;49.70;100745.63;112289;1255;19000;-37
2023/06/16 03:39:35;;;;;;;;;12.67;12.00;;;;;23.22;49.63;100744.04;112196;1256;19313;-37
2023/06/16 03:42:02;;;;;;;;;16.00;15.00;;;;;23.22;49.57;100741.38;112260;1263;19946;-37
2023/06/16 03:44:30;;;;;;;;;15.00;14.00;;;;;23.22;49.52;100740.83;112189;1247;21356;-37
2023/06/16 03:46:58;;;;;;;;;11.33;11.33;;;;;23.22;49.62;100742.85;112239;1263;19681;-37
2023/06/16 03:49:25;;;;;;;;;14.50;13.00;;;;;23.22;49.61;100742.64;112167;1257;20195;-37
2023/06/16 03:51:53;;;;;;;;;14.00;14.00;;;;;23.22;49.70;100743.02;112243;1263;20087;-37
2023/06/16 03:54:20;;;;;;;;;14.00;12.00;;;;;23.20;49.53;100744.82;112188;1247;19481;-37
2023/06/16 03:56:47;;;;;;;;;17.33;15.00;;;;;23.17;49.65;100745.32;112266;1263;19940;-37
2023/06/16 03:59:15;;;;;;;;;15.50;15.00;;;;;23.16;49.39;100744.54;112190;1256;18832;-37
2023/06/16 04:01:42;;;;;;;;;11.50;11.00;;;;;23.16;49.49;100747.25;112297;1263;20616;-37
2023/06/16 04:04:10;;;;;;;;;19.67;18.33;;;;;23.16;49.56;100744.76;112153;1263;18554;-37
2023/06/16 04:06:37;;;;;;;;;14.67;14.67;;;;;23.14;49.43;100747.56;112264;1263;20015;-37
2023/06/16 04:09:05;;;;;;;;;19.00;16.00;;;;;23.15;49.48;100749.39;112178;1257;19168;-37
2023/06/16 04:11:32;;;;;;;;;17.00;15.50;;;;;23.15;49.52;100750.35;112277;1263;18803;-37
2023/06/16 04:14:00;;;;;;;;;16.00;16.00;;;;;23.16;49.49;100757.13;112145;1263;20426;-37
2023/06/16 04:16:27;;;;;;;;;16.33;15.67;;;;;23.15;49.46;100751.48;112281;1263;19491;-37
2023/06/16 04:18:55;;;;;;;;;14.00;14.00;;;;;23.15;49.59;100751.32;112157;1247;20053;-37
2023/06/16 04:21:22;;;;;;;;;17.67;16.00;;;;;23.14;49.62;100751.98;112289;1262;18930;-37
2023/06/16 04:23:49;;;;;;;;;14.00;14.00;;;;;23.14;49.42;100752.65;112131;1263;19440;-37
2023/06/16 04:26:21;;;;;;;;;19.00;16.50;;;;;23.14;49.44;100748.15;112124;1263;21911;-37
2023/06/16 04:28:53;;;;;;;;;16.00;15.00;;;;;23.14;49.44;100752.02;112187;1247;18883;-37
2023/06/16 04:31:21;;;;;;;;;16.00;15.00;;;;;23.12;49.54;100750.16;112153;1263;20900;-37
2023/06/16 04:33:48;;;;;;;;;22.00;19.00;;;;;23.12;49.50;100748.89;112227;1247;18812;-37
2023/06/16 04:36:16;;;;;;;;;16.50;15.50;;;;;23.13;49.49;100749.77;112136;1263;18873;-37
2023/06/16 04:38:44;;;;;;;;;16.00;16.00;;;;;23.13;49.45;100748.46;112196;1247;19555;-37
2023/06/16 04:41:11;;;;;;;;;15.00;12.00;;;;;23.12;49.52;100748.52;112083;1247;21013;-37
2023/06/16 04:43:39;;;;;;;;;18.00;15.50;;;;;23.12;49.23;100750.48;112221;1247;20561;-37
2023/06/16 04:46:06;;;;;;;;;18.00;18.00;;;;;23.15;49.39;100747.99;112068;1247;20871;-37
2023/06/16 04:48:34;;;;;;;;;16.00;16.00;;;;;23.18;49.71;100751.95;112183;1263;20058;-37
2023/06/16 04:51:01;;;;;;;;;14.00;12.00;;;;;23.22;49.80;100758.75;112092;1263;19114;-38
2023/06/16 04:53:29;;;;;;;;;12.00;12.00;;;;;23.27;49.69;100758.80;112177;1263;19592;-37
2023/06/16 04:55:56;;;;;;;;;15.00;14.00;;;;;23.30;49.65;100758.71;112065;1263;18945;-37
2023/06/16 04:58:24;;;;;;;;;12.33;11.67;;;;;23.36;49.76;100758.16;112187;1256;20396;-37
2023/06/16 05:00:51;;;;;;;;;14.67;12.67;;;;;23.40;49.79;100762.40;112072;1263;20878;-37
2023/06/16 05:03:19;;;;;;;;;14.50;14.00;;;;;23.39;49.83;100762.98;112193;1263;21311;-38
2023/06/16 05:05:46;;;;;;;;;13.33;12.00;;;;;23.41;50.00;100762.97;112125;1247;18705;-38
2023/06/16 05:08:14;;;;;;;;;13.00;13.00;;;;;23.43;49.99;100763.38;112190;1247;22236;-37
2023/06/16 05:10:42;;;;;;;;;11.00;11.00;;;;;23.39;49.95;100758.84;112120;1255;19568;-38
2023/06/16 05:13:09;;;;;;;;;11.67;11.67;;;;;23.32;49.82;100760.48;112151;1263;18685;-37
2023/06/16 05:15:37;;;;;;;;;14.00;12.00;;;;;23.30;50.03;100758.85;112294;1247;20772;-37
2023/06/16 05:18:04;;;;;;;;;18.00;12.00;;;;;23.30;49.92;100760.87;112135;1263;18581;-37
2023/06/16 05:20:32;;;;;;;;;11.00;10.00;;;;;23.33;49.98;100759.64;112260;1256;18738;-38
2023/06/16 05:23:02;;;;;;;;;13.33;13.33;;;;;23.33;49.95;100763.98;112167;1263;20933;-38
2023/06/16 05:25:29;;;;;;;;;11.00;11.00;;;;;23.34;50.19;100765.80;112150;1263;21231;-37
2023/06/16 05:27:57;;;;;;;;;12.00;12.00;;;;;23.34;50.29;100761.88;112282;1257;18744;-36
2023/06/16 05:30:24;;;;;;;;;14.00;14.00;;;;;23.35;50.22;100765.30;112129;1263;19729;-35
2023/06/16 05:32:52;;;;;;;;;15.00;14.67;;;;;23.33;50.32;100761.45;112222;1263;20134;-35
2023/06/16 05:35:19;;;;;;;;;15.50;15.50;;;;;23.30;50.66;100761.66;112162;1263;20071;-37
2023/06/16 05:37:47;;;;;;;;;18.00;16.00;;;;;23.33;50.68;100765.48;112197;1248;21059;-38
2023/06/16 05:40:14;;;;;;;;;23.00;19.00;;;;;23.36;50.77;100765.14;112194;1247;21060;-38
2023/06/16 05:42:41;;;;;;;;;16.67;16.00;;;;;23.38;50.70;100769.61;112069;1263;21271;-36
2023/06/16 05:45:09;;;;;;;;;18.00;15.50;;;;;23.37;50.55;100765.99;112203;1254;19357;-36
2023/06/16 05:47:36;;;;;;;;;14.00;14.00;;;;;23.39;50.55;100767.74;112049;1263;21186;-35
2023/06/16 05:50:04;;;;;;;;;18.00;14.50;;;;;23.40;50.62;100765.10;112220;1247;20085;-36
2023/06/16 05:52:31;;;;;;;;;18.00;16.00;;;;;23.39;50.59;100771.95;112104;1263;20705;-36
2023/06/16 05:54:59;;;;;;;;;18.00;18.00;;;;;23.39;50.58;100772.12;112170;1263;18757;-36
2023/06/16 05:57:26;;;;;;;;;15.00;12.00;;;;;23.39;50.59;100773.97;112082;1263;20301;-36
2023/06/16 05:59:54;;;;;;;;;14.67;14.00;;;;;23.40;50.69;100777.55;112188;1263;20704;-36
2023/06/16 06:02:24;;;;;;;;;15.00;14.00;;;;;23.40;50.62;100775.63;112068;1263;19926;-36
2023/06/16 06:04:51;;;;;;;;;22.00;18.50;;;;;23.37;50.73;100779.30;112071;1256;18922;-37
2023/06/16 06:07:19;;;;;;;;;18.33;18.00;;;;;23.24;50.64;100777.07;112194;1263;21059;-36
2023/06/16 06:09:46;;;;;;;;;15.00;15.00;;;;;23.23;50.82;100777.52;112066;1263;20130;-36
2023/06/16 06:12:14;;;;;;;;;18.00;16.00;;;;;23.27;50.84;100779.89;112175;1256;18881;-36
2023/06/16 06:14:41;;;;;;;;;15.00;14.00;;;;;23.32;50.94;100785.49;112060;1263;21996;-37
2023/06/16 06:17:09;;;;;;;;;23.50;18.00;;;;;23.36;50.68;100779.87;112172;1263;21098;-37
2023/06/16 06:19:37;;;;;;;;;16.00;15.00;;;;;23.38;50.83;100782.38;112056;1263;20390;-36
2023/06/16 06:22:04;;;;;;;;;21.00;18.00;;;;;23.39;50.70;100780.88;112144;1263;19327;-37
2023/06/16 06:24:32;;;;;;;;;24.00;22.50;;;;;23.40;50.56;100781.34;112283;1263;18544;-36
2023/06/16 06:26:59;;;;;;;;;34.67;29.67;;;;;23.37;50.54;100776.27;112142;1263;20064;-36
2023/06/16 06:29:27;;;;;;;;;35.67;32.67;;;;;23.34;50.56;100776.98;112275;1247;19661;-36
2023/06/16 06:31:54;;;;;;;;;69.00;55.00;;;;;23.34;50.55;100771.17;112150;1247;19963;-37
2023/06/16 06:34:22;;;;;;;;;86.00;60.00;;;;;23.34;50.52;100776.44;112230;1263;18712;-37
2023/06/16 06:36:50;;;;;;;;;72.33;53.33;;;;;23.25;51.11;100776.88;112164;1263;19868;-36
2023/06/16 06:39:17;;;;;;;;;70.00;54.00;;;;;23.25;51.40;100772.88;112263;1263;21268;-36
2023/06/16 06:41:45;;;;;;;;;67.00;50.00;;;;;23.28;51.52;100770.81;112144;1247;20091;-36
2023/06/16 06:44:12;;;;;;;;;58.00;42.00;;;;;23.30;51.30;100769.66;112270;1263;19707;-36
2023/06/16 06:46:40;;;;;;;;;44.00;40.00;;;;;23.34;51.14;100772.48;112156;1263;20034;-36
2023/06/16 06:49:07;;;;;;;;;43.33;37.67;;;;;23.38;51.21;100776.52;112295;1263;20515;-36
2023/06/16 06:51:35;;;;;;;;;40.50;36.50;;;;;23.39;51.15;100778.44;112157;1263;19728;-36
2023/06/16 06:54:03;;;;;;;;;36.67;31.33;;;;;23.41;51.23;100782.48;112275;1263;18978;-36
2023/06/16 06:56:30;;;;;;;;;32.50;28.50;;;;;23.41;51.52;100783.04;112171;1263;20406;-36
2023/06/16 06:58:58;;;;;;;;;33.00;29.00;;;;;23.40;51.54;100781.13;112255;1263;19792;-36
2023/06/16 07:01:25;;;;;;;;;27.00;23.00;;;;;23.38;51.67;100778.89;112163;1263;18638;-35
2023/06/16 07:03:53;;;;;;;;;30.50;27.00;;;;;23.37;51.74;100778.24;112252;1247;18942;-35
2023/06/16 07:06:21;;;;;;;;;36.00;29.00;;;;;23.37;51.76;100781.22;112180;1263;19671;-35
2023/06/16 07:08:48;;;;;;;;;29.00;25.00;;;;;23.37;51.78;100784.47;112210;1263;20073;-36
2023/06/16 07:11:16;;;;;;;;;26.00;23.00;;;;;23.37;51.82;100783.38;112158;1263;20236;-36
2023/06/16 07:13:43;;;;;;;;;28.00;26.00;;;;;23.37;51.80;100780.02;112203;1247;20704;-36
2023/06/16 07:16:10;;;;;;;;;33.00;29.00;;;;;23.39;51.79;100779.14;112129;1263;20111;-36
2023/06/16 07:18:38;;;;;;;;;40.00;36.00;;;;;23.37;51.84;100776.46;112193;1263;20307;-37
2023/06/16 07:21:06;;;;;;;;;43.00;35.67;;;;;23.15;52.90;100775.84;112128;1263;20646;-37
2023/06/16 07:23:33;;;;;;;;;46.00;40.00;;;;;22.85;53.91;100776.33;112227;1247;21265;-36
2023/06/16 07:26:01;;;;;;;;;46.00;41.00;;;;;22.85;54.20;100775.27;112091;1256;18963;-37
2023/06/16 07:28:28;;;;;;;;;51.50;43.00;;;;;22.84;54.62;100772.23;112214;1263;20742;-36
2023/06/16 07:30:56;;;;;;;;;44.00;41.00;;;;;22.80;55.38;100770.27;112107;1263;20249;-36
2023/06/16 07:33:23;;;;;;;;;52.00;42.00;;;;;22.84;55.74;100767.34;112240;1263;20082;-36
2023/06/16 07:35:51;;;;;;;;;43.00;36.50;;;;;22.89;56.09;100764.20;112120;1263;19333;-36
2023/06/16 07:38:18;;;;;;;;;44.00;38.00;;;;;22.91;56.27;100761.37;112269;1263;18620;-35
2023/06/16 07:40:46;;;;;;;;;39.00;36.00;;;;;22.94;56.18;100764.73;112138;1263;18922;-36
2023/06/16 07:43:13;;;;;;;;;46.50;38.00;;;;;22.91;56.38;100761.92;112226;1263;19348;-37
2023/06/16 07:45:40;;;;;;;;;39.00;35.00;;;;;22.92;56.12;100760.75;112115;1263;19956;-36
2023/06/16 07:48:09;;;;;;;;;37.50;32.00;;;;;22.94;55.97;100758.50;112266;1263;20072;-36
2023/06/16 07:50:37;;;;;;;;;32.67;28.67;;;;;22.80;56.48;100761.90;112123;1263;19186;-36
2023/06/16 07:53:04;;;;;;;;;43.00;37.50;;;;;22.92;56.39;100755.15;112159;1263;18920;-36
2023/06/16 07:55:32;;;;;;;;;33.00;30.00;;;;;22.96;56.30;100756.09;112134;1263;19049;-36
2023/06/16 07:57:59;;;;;;;;;34.50;31.50;;;;;22.99;56.32;100755.30;112154;1263;21150;-36
2023/06/16 08:00:27;;;;;;;;;29.50;27.50;;;;;22.98;56.49;100751.23;112184;1247;20531;-36
2023/06/16 08:02:54;;;;;;;;;33.50;29.00;;;;;22.96;56.79;100751.89;112178;1263;21409;-36
2023/06/16 08:05:22;;;;;;;;;29.00;27.00;;;;;23.01;56.67;100748.13;112289;1263;19369;-36
2023/06/16 08:07:49;;;;;;;;;35.00;29.50;;;;;23.10;56.36;100751.52;112150;1263;19966;-36
2023/06/16 08:10:20;;;;;;;;;34.50;33.00;;;;;23.17;56.60;100749.88;112277;1263;20014;-37
2023/06/16 08:12:49;;;;;;;;;33.67;30.67;;;;;23.09;56.51;100752.63;112299;1247;20712;-38
2023/06/16 08:15:16;;;;;;;;;31.50;28.00;;;;;22.98;56.58;100753.22;112066;1251;20008;-39
2023/06/16 08:17:44;;;;;;;;;29.00;25.00;;;;;23.15;56.37;100748.55;112204;1263;18598;-38
2023/06/16 08:20:11;;;;;;;;;29.50;28.00;;;;;23.10;56.29;100745.95;112038;1263;20722;-38
2023/06/16 08:22:39;;;;;;;;;30.00;26.00;;;;;23.01;56.07;100742.64;112183;1247;20259;-38
2023/06/16 08:25:06;;;;;;;;;29.00;26.00;;;;;23.14;55.58;100740.36;112080;1263;20211;-38
2023/06/16 08:27:34;;;;;;;;;28.00;26.00;;;;;23.28;55.51;100741.43;112185;1263;19573;-39
2023/06/16 08:30:01;;;;;;;;;28.00;26.00;;;;;23.18;55.08;100738.72;112086;1263;18574;-38
2023/06/16 08:32:29;;;;;;;;;25.00;24.00;;;;;23.16;54.74;100743.67;112191;1263;18737;-38
2023/06/16 08:34:56;;;;;;;;;26.50;25.50;;;;;23.29;54.43;100741.41;112095;1247;20871;-38
2023/06/16 08:37:24;;;;;;;;;24.00;24.00;;;;;23.23;53.95;100745.39;112213;1263;20072;-37
2023/06/16 08:39:51;;;;;;;;;25.00;24.00;;;;;22.72;53.87;100747.76;112137;1263;20056;-37
2023/06/16 08:42:18;;;;;;;;;24.00;24.00;;;;;22.71;53.92;100743.29;112201;1263;21824;-38
2023/06/16 08:44:46;;;;;;;;;26.50;25.00;;;;;22.86;53.72;100746.35;112106;1263;18743;-38
2023/06/16 08:47:13;;;;;;;;;41.50;38.00;;;;;23.04;53.44;100740.75;112222;1263;18703;-39
2023/06/16 08:49:41;;;;;;;;;38.67;35.00;;;;;23.29;53.78;100744.58;112125;1247;20679;-39
2023/06/16 08:52:08;;;;;;;;;32.00;29.00;;;;;23.38;54.54;100744.94;112237;1262;20335;-38
2023/06/16 08:54:36;;;;;;;;;26.00;25.00;;;;;23.48;54.67;100744.52;112095;1263;20088;-37
2023/06/16 08:57:04;;;;;;;;;25.00;22.00;;;;;23.45;53.87;100742.39;112252;1262;19512;-37
2023/06/16 08:59:32;;;;;;;;;24.00;22.00;;;;;23.45;53.18;100741.89;112092;1263;19633;-38
2023/06/16 09:02:01;;;;;;;;;26.00;25.00;;;;;23.53;53.24;100741.92;112160;1263;20261;-38
2023/06/16 09:04:32;;;;;;;;;24.00;23.00;;;;;23.56;53.80;100739.39;112190;1263;19678;-37
2023/06/16 09:07:00;;;;;;;;;25.00;24.00;;;;;23.72;54.06;100740.07;112163;1247;18607;-41
2023/06/16 09:09:27;;;;;;;;;25.00;23.00;;;;;23.80;53.78;100739.80;112285;1247;18683;-39
2023/06/16 09:11:55;;;;;;;;;22.00;21.00;;;;;23.66;53.35;100734.03;112153;1263;19760;-38
2023/06/16 09:14:22;;;;;;;;;22.50;22.50;;;;;23.68;53.45;100735.45;112337;1247;18567;-39
2023/06/16 09:16:49;;;;;;;;;23.00;21.50;;;;;23.76;53.12;100734.05;112173;1263;20389;-39
2023/06/16 09:19:17;;;;;;;;;19.00;18.00;;;;;23.72;52.56;100735.52;112275;1247;19384;-39
2023/06/16 09:21:45;;;;;;;;;22.00;22.00;;;;;23.65;52.11;100736.63;112126;1263;19860;-39
2023/06/16 09:24:12;;;;;;;;;19.00;18.00;;;;;23.44;51.89;100735.09;112258;1263;20362;-39
2023/06/16 09:26:40;;;;;;;;;25.50;23.00;;;;;23.33;51.53;100731.99;112149;1263;19330;-40
2023/06/16 09:29:07;;;;;;;;;26.00;25.00;;;;;23.29;51.81;100734.77;112267;1263;19886;-39
2023/06/16 09:31:35;;;;;;;;;28.33;25.00;;;;;23.38;52.00;100733.33;112138;1263;20117;-40
2023/06/16 09:34:02;;;;;;;;;21.33;21.33;;;;;23.49;51.71;100732.09;112298;1247;19531;-40
2023/06/16 09:36:30;;;;;;;;;21.00;21.00;;;;;23.49;51.60;100730.65;112132;1263;20152;-39
2023/06/16 09:38:58;;;;;;;;;20.00;19.00;;;;;23.49;51.26;100727.50;112245;1263;19194;-41
2023/06/16 09:41:25;;;;;;;;;22.00;20.00;;;;;23.55;51.03;100728.23;112163;1263;20700;-39
2023/06/16 09:43:53;;;;;;;;;20.00;18.50;;;;;23.57;50.98;100721.38;112260;1263;19937;-39
2023/06/16 09:46:20;;;;;;;;;21.00;18.00;;;;;23.48;50.10;100722.30;112164;1247;20179;-39
2023/06/16 09:48:48;;;;;;;;;18.00;16.00;;;;;23.41;49.91;100721.80;112248;1262;21077;-39
2023/06/16 09:51:15;;;;;;;;;19.00;18.00;;;;;23.43;49.41;100719.17;112136;1263;20236;-39
2023/06/16 09:53:43;;;;;;;;;17.50;16.00;;;;;23.03;48.97;100719.27;112269;1247;20078;-39
2023/06/16 09:56:10;;;;;;;;;19.00;18.00;;;;;23.03;49.18;100717.73;112185;1247;20724;-40
2023/06/16 09:58:38;;;;;;;;;19.00;18.00;;;;;23.36;49.19;100713.44;112275;1247;19997;-39
2023/06/16 10:01:05;;;;;;;;;21.00;19.00;;;;;23.49;49.29;100716.52;112157;1263;18945;-38
2023/06/16 10:03:33;;;;;;;;;18.00;16.00;;;;;23.42;49.68;100716.67;112221;1263;21054;-39
2023/06/16 10:06:01;;;;;;;;;16.50;16.50;;;;;23.42;49.79;100718.58;112142;1263;20286;-39
2023/06/16 10:08:28;;;;;;;;;20.67;18.67;;;;;23.36;49.63;100715.62;112255;1263;20009;-39
2023/06/16 10:10:56;;;;;;;;;19.00;19.00;;;;;23.35;49.69;100712.02;112132;1263;20710;-39
2023/06/16 10:13:23;;;;;;;;;19.50;16.50;;;;;23.21;49.94;100713.35;112234;1247;19950;-38
2023/06/16 10:15:51;;;;;;;;;42.67;35.67;;;;;23.04;49.51;100713.75;112102;1263;20015;-38
2023/06/16 10:18:18;;;;;;;;;33.33;29.33;;;;;23.05;49.59;100713.34;112201;1257;19253;-38
2023/06/16 10:20:46;;;;;;;;;25.00;23.00;;;;;23.10;49.21;100712.89;112146;1257;18554;-38
2023/06/16 10:23:13;;;;;;;;;24.50;21.00;;;;;23.10;48.64;100710.13;112223;1263;20347;-39
2023/06/16 10:25:41;;;;;;;;;18.00;18.00;;;;;23.20;48.59;100710.36;112122;1256;19479;-38
2023/06/16 10:28:11;;;;;;;;;18.50;18.50;;;;;23.26;48.74;100709.16;112191;1263;20356;-39
2023/06/16 10:30:38;;;;;;;;;18.00;16.00;;;;;23.33;48.88;100706.50;112248;1263;21524;-38
2023/06/16 10:33:06;;;;;;;;;20.00;18.50;;;;;23.19;48.67;100707.70;112125;1263;20988;-38
2023/06/16 10:35:37;;;;;;;;;18.50;16.50;;;;;23.00;48.80;100709.59;112223;1263;20263;-38
2023/06/16 10:38:05;;;;;;;;;19.00;18.00;;;;;23.02;48.64;100706.84;112161;1255;21427;-39
2023/06/16 10:40:32;;;;;;;;;18.50;18.00;;;;;23.14;48.86;100703.81;112286;1263;20888;-39
2023/06/16 10:43:00;;;;;;;;;17.50;15.00;;;;;23.06;48.41;100708.71;112128;1263;21381;-38
2023/06/16 10:45:28;;;;;;;;;16.00;15.00;;;;;23.04;48.40;100701.30;112251;1263;18717;-40
2023/06/16 10:47:56;;;;;;;;;18.00;17.50;;;;;23.00;48.29;100705.80;112146;1247;20824;-39
2023/06/16 10:50:24;;;;;;;;;18.00;15.00;;;;;22.89;48.39;100703.48;112177;1263;18900;-39
2023/06/16 10:52:52;;;;;;;;;19.00;18.00;;;;;22.97;48.26;100701.85;112107;1263;20589;-39
2023/06/16 10:55:20;;;;;;;;;21.00;18.00;;;;;23.11;48.04;100696.96;112178;1247;20701;-39
2023/06/16 10:57:47;;;;;;;;;15.00;15.00;;;;;23.13;48.14;100695.55;112282;1263;20636;-39
2023/06/16 11:00:16;;;;;;;;;20.00;18.00;;;;;23.14;48.44;100693.84;112141;1263;18680;-39
2023/06/16 11:02:44;;;;;;;;;20.00;18.50;;;;;23.24;48.47;100689.28;112209;1263;20834;-38